createdAt,value
2022-09-07T00:00:36.479Z,21.10
2022-09-07T00:01:49.130Z,21.10
2022-09-07T00:02:51.000Z,21.10
2022-09-07T00:04:00.907Z,21.10
2022-09-07T00:05:06.991Z,21.10
2022-09-07T00:06:11.297Z,21.10
2022-09-07T00:07:13.077Z,21.10
2022-09-07T00:08:17.411Z,21.10
2022-09-07T00:09:19.324Z,21.10
2022-09-07T00:10:24.674Z,21.20
2022-09-07T00:11:26.496Z,21.10
2022-09-07T00:12:28.350Z,21.10
2022-09-07T00:13:36.052Z,21.10
2022-09-07T00:14:37.790Z,21.10
2022-09-07T00:15:41.624Z,21.10
2022-09-07T00:16:45.878Z,21.10
2022-09-07T00:17:47.599Z,21.10
2022-09-07T00:18:51.010Z,21.10
2022-09-07T00:19:52.808Z,21.10
2022-09-07T00:21:02.664Z,21.10
2022-09-07T00:22:13.003Z,21.10
2022-09-07T00:23:14.829Z,21.10
2022-09-07T00:24:19.378Z,21.00
2022-09-07T00:25:21.107Z,21.00
2022-09-07T00:26:25.500Z,21.00
2022-09-07T00:27:27.341Z,20.90
2022-09-07T00:28:33.284Z,20.90
2022-09-07T00:29:39.501Z,20.90
2022-09-07T00:30:42.865Z,20.90
2022-09-07T00:31:48.015Z,20.90
2022-09-07T00:32:49.850Z,20.90
2022-09-07T00:33:53.358Z,20.90
2022-09-07T00:34:55.182Z,20.80
2022-09-07T00:35:58.818Z,20.80
2022-09-07T00:37:00.900Z,20.80
2022-09-07T00:38:05.931Z,20.80
2022-09-07T00:39:08.006Z,20.70
2022-09-07T00:40:10.059Z,20.70
2022-09-07T00:41:12.630Z,20.70
2022-09-07T00:42:23.524Z,20.80
2022-09-07T00:43:40.432Z,20.80
2022-09-07T00:45:10.135Z,20.80
2022-09-07T00:46:22.692Z,20.80
2022-09-07T00:47:33.401Z,20.70
2022-09-07T00:49:00.377Z,20.70
2022-09-07T00:50:22.081Z,20.60
2022-09-07T00:51:36.793Z,20.60
2022-09-07T00:52:44.157Z,20.60
2022-09-07T00:54:03.559Z,20.60
2022-09-07T00:55:10.003Z,20.60
2022-09-07T00:56:13.197Z,20.70
2022-09-07T00:57:30.757Z,20.70
2022-09-07T00:58:35.956Z,20.70
2022-09-07T00:59:44.807Z,20.70
2022-09-07T01:00:52.008Z,20.60
2022-09-07T01:02:00.598Z,20.60
2022-09-07T01:03:04.722Z,20.60
2022-09-07T01:04:07.838Z,20.60
2022-09-07T01:05:31.802Z,20.60
2022-09-07T01:06:36.344Z,20.60
2022-09-07T01:07:49.647Z,20.60
2022-09-07T01:08:54.836Z,20.70
2022-09-07T01:09:57.915Z,20.70
2022-09-07T01:11:02.935Z,20.60
2022-09-07T01:12:07.880Z,20.60
2022-09-07T01:13:10.034Z,20.60
2022-09-07T01:14:16.462Z,20.60
2022-09-07T01:15:26.936Z,20.60
2022-09-07T01:16:46.244Z,20.60
2022-09-07T01:18:09.177Z,20.60
2022-09-07T01:19:57.706Z,20.60
2022-09-07T01:21:20.199Z,20.60
2022-09-07T01:22:49.667Z,20.60
2022-09-07T01:24:03.216Z,20.60
2022-09-07T01:25:13.880Z,20.60
2022-09-07T01:26:56.922Z,20.60
2022-09-07T01:28:05.364Z,20.60
2022-09-07T01:29:27.488Z,20.60
2022-09-07T01:30:33.446Z,20.60
2022-09-07T01:31:52.347Z,20.60
2022-09-07T01:32:56.753Z,20.60
2022-09-07T01:34:14.274Z,20.50
2022-09-07T01:35:36.817Z,20.50
2022-09-07T01:36:53.383Z,20.50
2022-09-07T01:38:19.731Z,20.50
2022-09-07T01:39:28.643Z,20.50
2022-09-07T01:40:44.073Z,20.50
2022-09-07T01:42:11.674Z,20.40
2022-09-07T01:43:24.976Z,20.20
2022-09-07T01:44:46.703Z,20.20
2022-09-07T01:45:48.942Z,20.10
2022-09-07T01:47:11.679Z,20.10
2022-09-07T01:48:17.508Z,20.10
2022-09-07T01:49:31.618Z,20.10
2022-09-07T01:50:40.312Z,20.10
2022-09-07T01:51:48.825Z,20.10
2022-09-07T01:53:17.218Z,20.10
2022-09-07T01:54:40.262Z,20.10
2022-09-07T01:55:50.654Z,20.10
2022-09-07T01:56:56.484Z,20.10
2022-09-07T01:58:36.297Z,20.00
2022-09-07T01:59:50.827Z,20.10
2022-09-07T02:01:03.097Z,20.10
2022-09-07T02:02:10.020Z,20.00
2022-09-07T02:03:24.925Z,20.00
2022-09-07T02:04:39.867Z,20.00
2022-09-07T02:06:07.677Z,20.00
2022-09-07T02:07:17.979Z,20.00
2022-09-07T02:08:31.085Z,20.10
2022-09-07T02:09:40.605Z,20.10
2022-09-07T02:11:07.411Z,20.10
2022-09-07T02:12:45.694Z,20.10
2022-09-07T02:14:07.566Z,20.10
2022-09-07T02:15:25.902Z,20.10
2022-09-07T02:16:29.919Z,20.10
2022-09-07T02:17:41.930Z,20.00
2022-09-07T02:18:55.862Z,20.00
2022-09-07T02:20:13.558Z,20.00
2022-09-07T02:21:21.409Z,20.00
2022-09-07T02:22:28.277Z,20.00
2022-09-07T02:23:39.320Z,20.00
2022-09-07T02:24:46.595Z,20.10
2022-09-07T02:25:55.119Z,20.10
2022-09-07T02:26:59.332Z,20.10
2022-09-07T02:28:13.637Z,20.10
2022-09-07T02:29:15.752Z,20.10
2022-09-07T02:30:18.180Z,20.00
2022-09-07T02:31:20.415Z,20.00
2022-09-07T02:32:24.288Z,20.10
2022-09-07T02:34:43.186Z,20.10
2022-09-07T02:35:46.031Z,20.10
2022-09-07T02:36:50.246Z,20.10
2022-09-07T02:37:53.247Z,20.10
2022-09-07T02:38:55.017Z,20.10
2022-09-07T02:39:58.020Z,20.10
2022-09-07T02:41:01.731Z,20.10
2022-09-07T02:42:10.969Z,20.10
2022-09-07T02:43:18.926Z,20.10
2022-09-07T02:44:35.625Z,20.00
2022-09-07T02:45:52.392Z,20.00
2022-09-07T02:47:19.891Z,20.00
2022-09-07T02:48:33.499Z,20.00
2022-09-07T02:49:58.958Z,19.90
2022-09-07T02:51:15.990Z,19.90
2022-09-07T02:52:17.671Z,19.80
2022-09-07T02:53:31.743Z,19.80
2022-09-07T02:55:02.334Z,19.80
2022-09-07T02:56:21.986Z,19.80
2022-09-07T02:57:35.139Z,19.80
2022-09-07T02:59:15.665Z,19.80
2022-09-07T03:00:21.328Z,19.70
2022-09-07T03:01:57.184Z,19.70
2022-09-07T03:03:40.800Z,19.80
2022-09-07T03:05:02.079Z,19.80
2022-09-07T03:06:17.427Z,19.80
2022-09-07T03:07:35.872Z,19.80
2022-09-07T03:08:48.245Z,19.80
2022-09-07T03:09:57.028Z,19.90
2022-09-07T03:11:02.434Z,19.90
2022-09-07T03:12:05.551Z,19.90
2022-09-07T03:13:09.450Z,19.90
2022-09-07T03:14:25.067Z,19.80
2022-09-07T03:15:31.206Z,19.80
2022-09-07T03:16:33.775Z,19.80
2022-09-07T03:17:35.449Z,19.90
2022-09-07T03:18:40.532Z,19.90
2022-09-07T03:19:45.382Z,19.90
2022-09-07T03:20:51.990Z,19.90
2022-09-07T03:21:53.968Z,19.90
2022-09-07T03:22:57.480Z,19.70
2022-09-07T03:23:59.240Z,19.50
2022-09-07T03:26:09.241Z,19.30
2022-09-07T03:27:11.824Z,19.10
2022-09-07T03:28:13.489Z,19.20
2022-09-07T03:29:15.663Z,19.20
2022-09-07T03:30:17.537Z,19.30
2022-09-07T03:31:19.727Z,19.30
2022-09-07T03:32:21.530Z,19.30
2022-09-07T03:33:23.204Z,19.40
2022-09-07T03:34:24.953Z,19.50
2022-09-07T03:35:26.811Z,19.50
2022-09-07T03:36:30.103Z,19.50
2022-09-07T03:37:32.205Z,19.60
2022-09-07T03:38:33.925Z,19.60
2022-09-07T03:39:36.814Z,19.70
2022-09-07T03:40:39.007Z,19.70
2022-09-07T03:41:43.191Z,19.70
2022-09-07T03:42:49.280Z,19.80
2022-09-07T03:43:51.242Z,19.80
2022-09-07T03:44:55.641Z,19.90
2022-09-07T03:46:02.879Z,20.00
2022-09-07T03:47:04.764Z,20.00
2022-09-07T03:48:06.453Z,20.00
2022-09-07T03:49:08.155Z,20.00
2022-09-07T03:50:12.831Z,20.00
2022-09-07T03:51:17.036Z,20.00
2022-09-07T03:52:19.114Z,20.00
2022-09-07T04:01:11.303Z,19.90
2022-09-07T04:02:18.712Z,20.00
2022-09-07T04:03:23.265Z,20.00
2022-09-07T04:04:25.061Z,20.00
2022-09-07T04:05:26.966Z,20.00
2022-09-07T04:06:29.618Z,20.00
2022-09-07T04:07:31.225Z,20.00
2022-09-07T04:08:38.607Z,20.10
2022-09-07T04:09:40.432Z,20.20
2022-09-07T04:10:42.186Z,20.20
2022-09-07T04:11:43.914Z,20.20
2022-09-07T04:12:45.551Z,20.20
2022-09-07T04:13:47.314Z,20.30
2022-09-07T04:14:49.212Z,20.30
2022-09-07T04:15:53.906Z,20.30
2022-09-07T04:16:55.887Z,20.40
2022-09-07T04:17:58.023Z,20.40
2022-09-07T04:19:02.680Z,20.40
2022-09-07T04:20:04.775Z,20.40
2022-09-07T04:21:06.626Z,20.30
2022-09-07T04:22:10.381Z,20.30
2022-09-07T04:23:12.561Z,20.30
2022-09-07T04:24:15.519Z,20.30
2022-09-07T04:25:18.125Z,20.30
2022-09-07T04:26:28.534Z,20.30
2022-09-07T04:27:30.286Z,20.40
2022-09-07T04:28:32.132Z,20.40
2022-09-07T04:29:33.899Z,20.40
2022-09-07T04:30:36.134Z,20.40
2022-09-07T04:31:38.224Z,20.30
2022-09-07T04:32:39.825Z,20.30
2022-09-07T04:33:42.721Z,20.20
2022-09-07T04:34:44.395Z,20.20
2022-09-07T04:35:46.043Z,20.20
2022-09-07T04:36:47.689Z,20.20
2022-09-07T04:37:49.320Z,20.20
2022-09-07T04:38:56.175Z,20.20
2022-09-07T04:39:58.437Z,20.20
2022-09-07T04:41:06.695Z,20.20
2022-09-07T04:42:08.441Z,20.10
2022-09-07T04:43:12.979Z,20.00
2022-09-07T04:44:16.905Z,19.90
2022-09-07T04:45:21.588Z,20.00
2022-09-07T04:46:26.538Z,20.00
2022-09-07T04:47:30.887Z,20.10
2022-09-07T04:48:32.927Z,20.10
2022-09-07T04:49:34.928Z,20.10
2022-09-07T04:50:36.679Z,20.20
2022-09-07T04:51:39.769Z,20.20
2022-09-07T04:52:41.519Z,20.20
2022-09-07T04:53:43.749Z,20.20
2022-09-07T04:54:49.740Z,20.20
2022-09-07T04:55:51.346Z,20.20
2022-09-07T04:56:53.130Z,20.20
2022-09-07T04:57:54.768Z,20.20
2022-09-07T04:58:56.747Z,20.20
2022-09-07T04:59:58.359Z,20.30
2022-09-07T05:01:04.945Z,20.20
2022-09-07T05:02:06.794Z,20.20
2022-09-07T05:03:08.479Z,20.30
2022-09-07T05:04:10.226Z,20.30
2022-09-07T05:05:11.837Z,20.20
2022-09-07T05:06:14.675Z,20.20
2022-09-07T05:07:16.285Z,20.10
2022-09-07T05:08:18.169Z,20.10
2022-09-07T05:09:19.849Z,20.00
2022-09-07T05:10:21.464Z,20.00
2022-09-07T05:11:28.761Z,20.00
2022-09-07T05:12:31.257Z,20.10
2022-09-07T05:13:32.981Z,20.10
2022-09-07T05:14:34.909Z,20.00
2022-09-07T05:15:37.028Z,20.10
2022-09-07T05:16:39.256Z,20.10
2022-09-07T05:17:41.459Z,20.10
2022-09-07T05:18:43.916Z,20.10
2022-09-07T05:19:46.166Z,20.20
2022-09-07T05:20:48.324Z,20.20
2022-09-07T05:21:50.589Z,20.20
2022-09-07T05:22:59.758Z,20.30
2022-09-07T05:24:03.091Z,20.30
2022-09-07T05:25:05.447Z,20.30
2022-09-07T05:26:08.338Z,20.30
2022-09-07T05:27:10.587Z,20.40
2022-09-07T05:28:18.595Z,20.40
2022-09-07T05:32:06.118Z,20.60
2022-09-07T05:33:08.374Z,20.70
2022-09-07T05:35:33.273Z,20.70
2022-09-07T05:36:41.891Z,20.70
2022-09-07T05:37:44.037Z,20.60
2022-09-07T05:38:46.502Z,20.40
2022-09-07T05:39:49.925Z,20.30
2022-09-07T05:40:53.327Z,20.30
2022-09-07T05:41:55.635Z,20.40
2022-09-07T05:42:57.793Z,20.40
2022-09-07T05:45:22.079Z,20.50
2022-09-07T05:46:24.437Z,20.50
2022-09-07T05:47:26.910Z,20.50
2022-09-07T05:48:29.586Z,20.50
2022-09-07T05:49:32.580Z,20.40
2022-09-07T05:50:35.834Z,20.50
2022-09-07T05:51:38.199Z,20.50
2022-09-07T05:52:40.164Z,20.60
2022-09-07T05:53:47.772Z,20.70
2022-09-07T05:54:49.991Z,20.80
2022-09-07T05:55:52.157Z,20.80
2022-09-07T05:56:54.225Z,20.80
2022-09-07T05:57:56.260Z,20.90
2022-09-07T05:58:58.416Z,20.90
2022-09-07T06:00:00.581Z,21.00
2022-09-07T06:01:06.462Z,21.00
2022-09-07T06:02:13.158Z,21.00
2022-09-07T06:03:15.316Z,21.00
2022-09-07T06:04:17.612Z,20.90
2022-09-07T06:05:19.762Z,20.80
2022-09-07T06:06:21.816Z,20.70
2022-09-07T06:07:24.079Z,20.70
2022-09-07T06:08:26.669Z,20.60
2022-09-07T06:10:54.516Z,20.30
2022-09-07T06:11:56.458Z,20.20
2022-09-07T06:13:03.713Z,20.10
2022-09-07T06:14:10.025Z,20.00
2022-09-07T06:15:12.281Z,19.90
2022-09-07T06:16:21.227Z,19.60
2022-09-07T06:17:23.168Z,19.50
2022-09-07T06:18:30.471Z,19.50
2022-09-07T06:19:33.391Z,19.50
2022-09-07T06:20:35.534Z,19.60
2022-09-07T06:21:38.712Z,19.60
2022-09-07T06:22:40.793Z,19.50
2022-09-07T06:25:40.004Z,19.50
2022-09-07T06:26:48.070Z,19.60
2022-09-07T06:27:50.253Z,19.60
2022-09-07T06:28:57.192Z,19.60
2022-09-07T06:29:59.804Z,19.70
2022-09-07T06:31:07.583Z,19.70
2022-09-07T06:33:32.049Z,19.90
2022-09-07T06:34:40.161Z,20.00
2022-09-07T06:35:54.303Z,19.90
2022-09-07T06:37:03.187Z,20.00
2022-09-07T06:38:05.158Z,20.10
2022-09-07T06:39:07.107Z,20.00
2022-09-07T06:40:13.532Z,20.00
2022-09-07T06:42:44.617Z,20.00
2022-09-07T06:43:46.850Z,20.10
2022-09-07T06:44:48.833Z,20.10
2022-09-07T06:45:54.637Z,20.10
2022-09-07T06:48:01.934Z,20.10
2022-09-07T06:49:03.981Z,20.20
2022-09-07T06:50:06.265Z,20.30
2022-09-07T06:51:19.260Z,20.30
2022-09-07T06:52:21.493Z,20.30
2022-09-07T06:53:41.699Z,20.20
2022-09-07T06:55:02.025Z,20.20
2022-09-07T06:56:13.573Z,20.30
2022-09-07T06:57:15.612Z,20.40
2022-09-07T06:58:17.703Z,20.40
2022-09-07T06:59:19.845Z,20.50
2022-09-07T07:00:21.977Z,20.60
2022-09-07T07:01:25.133Z,20.60
2022-09-07T07:02:27.266Z,20.70
2022-09-07T07:03:29.351Z,20.70
2022-09-07T07:04:32.411Z,20.70
2022-09-07T07:05:36.187Z,20.80
2022-09-07T07:06:39.048Z,20.90
2022-09-07T07:07:40.973Z,20.90
2022-09-07T07:08:43.138Z,21.00
2022-09-07T07:09:51.124Z,21.00
2022-09-07T07:10:53.605Z,21.00
2022-09-07T07:11:55.562Z,21.00
2022-09-07T07:12:58.368Z,20.90
2022-09-07T07:14:01.097Z,21.00
2022-09-07T07:15:03.041Z,20.90
2022-09-07T07:16:15.889Z,20.80
2022-09-07T07:17:17.815Z,20.80
2022-09-07T07:18:31.032Z,20.70
2022-09-07T07:19:33.100Z,20.70
2022-09-07T07:20:42.263Z,20.80
2022-09-07T07:22:07.993Z,20.80
2022-09-07T07:23:06.675Z,20.80
2022-09-07T07:24:08.934Z,20.90
2022-09-07T07:25:10.987Z,21.00
2022-09-07T07:26:15.297Z,21.00
2022-09-07T07:27:17.678Z,21.10
2022-09-07T07:29:41.551Z,21.10
2022-09-07T07:30:43.503Z,21.20
2022-09-07T07:31:47.268Z,21.20
2022-09-07T07:32:49.355Z,21.30
2022-09-07T07:33:53.228Z,21.30
2022-09-07T07:34:55.182Z,21.40
2022-09-07T07:36:08.750Z,21.40
2022-09-07T07:37:10.581Z,21.40
2022-09-07T07:42:19.007Z,21.70
2022-09-07T07:43:20.942Z,21.60
2022-09-07T07:44:22.907Z,21.60
2022-09-07T07:46:51.405Z,21.60
2022-09-07T07:47:53.548Z,21.90
2022-09-07T07:48:55.534Z,21.90
2022-09-07T07:51:19.701Z,22.20
2022-09-07T07:53:44.503Z,22.50
2022-09-07T07:54:46.623Z,22.70
2022-09-07T07:55:48.891Z,22.80
2022-09-07T07:56:50.985Z,22.90
2022-09-07T07:57:52.820Z,22.90
2022-09-07T07:58:55.145Z,22.90
2022-09-07T07:59:57.404Z,22.90
2022-09-07T08:01:12.253Z,22.90
2022-09-07T08:02:16.433Z,22.90
2022-09-07T08:03:19.044Z,22.90
2022-09-07T08:04:21.187Z,23.00
2022-09-07T08:05:23.185Z,23.00
2022-09-07T08:06:25.118Z,22.90
2022-09-07T08:07:27.042Z,22.90
2022-09-07T08:08:30.671Z,22.90
2022-09-07T08:09:33.001Z,22.80
2022-09-07T08:10:35.980Z,22.80
2022-09-07T08:11:40.238Z,22.80
2022-09-07T08:12:42.347Z,22.80
2022-09-07T08:13:45.529Z,22.80
2022-09-07T08:14:48.526Z,22.70
2022-09-07T08:15:50.585Z,22.60
2022-09-07T08:16:52.518Z,22.60
2022-09-07T08:17:54.476Z,22.60
2022-09-07T08:18:57.353Z,22.60
2022-09-07T08:19:59.468Z,22.50
2022-09-07T08:21:04.197Z,22.50
2022-09-07T08:22:07.487Z,22.50
2022-09-07T08:23:09.739Z,22.50
2022-09-07T08:24:12.001Z,22.40
2022-09-07T08:25:13.960Z,22.50
2022-09-07T08:26:16.344Z,22.50
2022-09-07T08:27:21.341Z,22.50
2022-09-07T08:28:23.708Z,22.50
2022-09-07T08:29:25.554Z,22.40
2022-09-07T08:30:27.505Z,22.30
2022-09-07T08:31:29.633Z,22.30
2022-09-07T08:32:31.754Z,22.30
2022-09-07T08:33:36.267Z,22.40
2022-09-07T08:34:38.395Z,22.30
2022-09-07T08:35:40.536Z,22.50
2022-09-07T08:36:42.537Z,22.70
2022-09-07T08:37:44.473Z,22.90
2022-09-07T08:38:47.546Z,23.20
2022-09-07T08:39:49.559Z,23.50
2022-09-07T08:40:52.195Z,23.80
2022-09-07T08:41:59.749Z,24.10
2022-09-07T08:43:23.059Z,24.30
2022-09-07T08:44:26.338Z,24.50
2022-09-07T08:45:36.961Z,24.70
2022-09-07T08:46:42.913Z,25.10
2022-09-07T08:47:52.272Z,25.50
2022-09-07T08:48:56.923Z,25.90
2022-09-07T08:50:04.197Z,26.20
2022-09-07T08:51:24.093Z,26.40
2022-09-07T08:52:34.025Z,26.70
2022-09-07T08:53:41.567Z,27.20
2022-09-07T08:54:49.616Z,27.60
2022-09-07T08:55:55.212Z,27.70
2022-09-07T08:58:48.671Z,27.10
2022-09-07T09:00:11.613Z,26.80
2022-09-07T09:01:34.096Z,27.30
2022-09-07T09:02:43.140Z,27.70
2022-09-07T09:05:42.405Z,28.20
2022-09-07T09:07:09.227Z,29.00
2022-09-07T09:08:25.782Z,29.30
2022-09-07T09:10:05.424Z,29.40
2022-09-07T09:11:16.310Z,29.70
2022-09-07T09:12:37.796Z,30.10
2022-09-07T09:14:02.106Z,30.50
2022-09-07T09:15:31.330Z,30.80
2022-09-07T09:16:58.430Z,30.90
2022-09-07T09:18:20.263Z,31.20
2022-09-07T09:19:27.912Z,31.20
2022-09-07T09:20:44.410Z,31.30
2022-09-07T09:21:46.211Z,31.40
2022-09-07T09:22:48.991Z,31.50
2022-09-07T09:23:53.346Z,31.80
2022-09-07T09:25:13.408Z,31.90
2022-09-07T09:26:30.609Z,32.10
2022-09-07T09:27:32.326Z,31.80
2022-09-07T09:28:34.177Z,31.80
2022-09-07T09:29:35.998Z,31.90
2022-09-07T09:30:37.677Z,32.10
2022-09-07T09:31:39.531Z,32.30
2022-09-07T09:32:43.774Z,32.70
2022-09-07T09:34:05.350Z,32.90
2022-09-07T09:35:29.850Z,32.60
2022-09-07T09:36:34.577Z,32.60
2022-09-07T09:37:38.520Z,32.70
2022-09-07T09:38:40.743Z,32.50
2022-09-07T09:39:44.444Z,32.60
2022-09-07T09:40:52.644Z,32.70
2022-09-07T09:41:57.222Z,32.90
2022-09-07T09:43:01.862Z,32.80
2022-09-07T09:44:03.702Z,33.00
2022-09-07T09:45:16.349Z,33.10
2022-09-07T09:46:20.774Z,32.90
2022-09-07T09:47:31.229Z,32.70
2022-09-07T09:48:37.081Z,32.90
2022-09-07T09:49:40.637Z,33.00
2022-09-07T09:52:42.949Z,33.50
2022-09-07T09:54:51.261Z,33.80
2022-09-07T09:55:53.935Z,33.70
2022-09-07T09:56:55.835Z,33.30
2022-09-07T10:04:59.469Z,33.70
2022-09-07T10:06:06.557Z,33.70
2022-09-07T10:07:19.106Z,33.80
2022-09-07T10:08:29.764Z,33.90
2022-09-07T10:09:49.700Z,33.70
2022-09-07T10:11:09.092Z,33.50
2022-09-07T10:12:27.034Z,33.20
2022-09-07T10:13:35.211Z,32.80
2022-09-07T10:14:44.236Z,32.70
2022-09-07T10:15:51.265Z,32.60
2022-09-07T10:16:53.432Z,32.40
2022-09-07T10:17:55.122Z,32.30
2022-09-07T10:18:58.932Z,32.50
2022-09-07T10:20:21.739Z,32.70
2022-09-07T10:21:27.601Z,32.90
2022-09-07T10:22:38.553Z,32.80
2022-09-07T10:23:40.835Z,32.60
2022-09-07T10:24:42.655Z,32.60
2022-09-07T10:25:44.395Z,32.40
2022-09-07T10:26:48.504Z,32.40
2022-09-07T10:28:06.050Z,32.40
2022-09-07T10:29:25.637Z,32.70
2022-09-07T10:30:27.675Z,32.70
2022-09-07T10:31:31.869Z,32.40
2022-09-07T10:32:33.567Z,32.20
2022-09-07T10:34:25.819Z,32.20
2022-09-07T10:35:17.687Z,32.10
2022-09-07T10:36:48.241Z,31.40
2022-09-07T10:38:13.455Z,30.50
2022-09-07T10:39:18.066Z,30.10
2022-09-07T10:40:33.897Z,29.60
2022-09-07T10:41:46.656Z,29.50
2022-09-07T10:43:21.532Z,29.60
2022-09-07T10:44:48.417Z,29.70
2022-09-07T10:47:55.987Z,30.20
2022-09-07T10:49:13.582Z,30.20
2022-09-07T10:50:32.949Z,30.00
2022-09-07T10:52:16.845Z,29.90
2022-09-07T10:53:41.881Z,30.00
2022-09-07T10:55:08.358Z,30.10
2022-09-07T10:56:18.308Z,30.20
2022-09-07T10:57:25.692Z,29.70
2022-09-07T11:00:17.859Z,29.70
2022-09-07T11:01:31.134Z,29.90
2022-09-07T11:02:38.943Z,30.00
2022-09-07T11:03:58.319Z,30.10
2022-09-07T11:05:03.040Z,30.10
2022-09-07T11:06:11.426Z,29.80
2022-09-07T11:08:03.862Z,29.80
2022-09-07T11:09:20.487Z,29.80
2022-09-07T11:10:36.706Z,29.70
2022-09-07T11:12:04.958Z,29.50
2022-09-07T11:13:12.118Z,29.10
2022-09-07T11:14:19.285Z,29.00
2022-09-07T11:15:31.361Z,28.90
2022-09-07T11:16:51.693Z,29.00
2022-09-07T11:18:06.422Z,29.10
2022-09-07T11:20:54.770Z,29.40
2022-09-07T11:22:27.509Z,29.70
2022-09-07T11:23:40.894Z,29.90
2022-09-07T11:26:45.670Z,30.00
2022-09-07T11:27:55.974Z,30.20
2022-09-07T11:30:37.279Z,30.50
2022-09-07T11:31:51.775Z,30.60
2022-09-07T11:33:31.594Z,30.60
2022-09-07T11:35:03.842Z,30.70
2022-09-07T11:36:18.280Z,30.60
2022-09-07T11:37:26.633Z,30.30
2022-09-07T11:38:34.413Z,30.10
2022-09-07T11:39:44.849Z,30.10
2022-09-07T11:41:14.929Z,30.10
2022-09-07T11:43:05.406Z,30.30
2022-09-07T11:44:21.811Z,30.50
2022-09-07T11:45:43.803Z,30.50
2022-09-07T11:46:52.395Z,30.50
2022-09-07T11:48:02.443Z,30.30
2022-09-07T11:49:11.998Z,30.30
2022-09-07T11:50:20.831Z,30.40
2022-09-07T11:51:43.046Z,30.50
2022-09-07T11:52:53.515Z,30.70
2022-09-07T11:54:02.797Z,30.80
2022-09-07T11:55:11.596Z,30.80
2022-09-07T11:56:20.257Z,30.70
2022-09-07T11:57:55.498Z,30.70
2022-09-07T11:59:03.315Z,30.90
2022-09-07T12:00:17.636Z,31.20
2022-09-07T12:01:35.638Z,31.20
2022-09-07T12:03:08.326Z,31.20
2022-09-07T12:04:48.745Z,31.00
2022-09-07T12:06:35.556Z,31.10
2022-09-07T12:07:55.250Z,31.30
2022-09-07T12:09:02.750Z,31.50
2022-09-07T12:10:20.564Z,31.60
2022-09-07T12:11:41.330Z,31.90
2022-09-07T12:12:48.904Z,31.90
2022-09-07T12:14:12.678Z,32.20
2022-09-07T12:15:32.763Z,31.90
2022-09-07T12:16:37.389Z,32.10
2022-09-07T12:18:21.086Z,31.90
2022-09-07T12:19:25.082Z,31.50
2022-09-07T12:20:43.614Z,31.70
2022-09-07T12:21:53.280Z,31.90
2022-09-07T12:23:07.378Z,32.10
2022-09-07T12:24:28.145Z,32.30
2022-09-07T12:25:31.205Z,32.20
2022-09-07T12:26:38.828Z,32.10
2022-09-07T12:27:40.484Z,32.20
2022-09-07T12:28:42.073Z,32.10
2022-09-07T12:29:46.700Z,32.10
2022-09-07T12:31:04.543Z,32.10
2022-09-07T12:33:36.716Z,32.00
2022-09-07T12:34:49.445Z,31.90
2022-09-07T12:35:51.226Z,31.90
2022-09-07T12:36:52.851Z,31.80
2022-09-07T12:37:59.021Z,31.60
2022-09-07T12:39:32.313Z,31.50
2022-09-07T12:40:37.275Z,31.40
2022-09-07T12:41:47.893Z,31.40
2022-09-07T12:42:49.621Z,31.20
2022-09-07T12:43:52.966Z,31.10
2022-09-07T12:45:29.329Z,31.00
2022-09-07T12:46:34.733Z,30.60
2022-09-07T12:47:36.943Z,30.50
2022-09-07T12:49:00.502Z,30.60
2022-09-07T12:50:28.497Z,30.80
2022-09-07T12:53:20.299Z,31.00
2022-09-07T12:54:40.935Z,31.20
2022-09-07T12:56:17.829Z,31.30
2022-09-07T12:57:54.062Z,31.40
2022-09-07T12:59:01.560Z,31.60
2022-09-07T13:00:17.290Z,31.90
2022-09-07T13:01:35.100Z,32.20
2022-09-07T13:02:54.960Z,32.60
2022-09-07T13:04:12.799Z,32.90
2022-09-07T13:05:34.010Z,33.10
2022-09-07T13:07:04.308Z,33.20
2022-09-07T13:08:15.079Z,33.00
2022-09-07T13:10:03.809Z,32.90
2022-09-07T13:11:34.408Z,32.50
2022-09-07T13:12:57.780Z,32.40
2022-09-07T13:14:05.079Z,32.20
2022-09-07T13:15:28.508Z,32.00
2022-09-07T13:17:16.043Z,31.70
2022-09-07T13:17:56.411Z,31.50
2022-09-07T13:18:59.651Z,31.40
2022-09-07T13:20:01.397Z,31.10
2022-09-07T13:21:08.861Z,30.90
2022-09-07T13:22:29.533Z,30.80
2022-09-07T13:23:31.388Z,30.70
2022-09-07T13:24:46.473Z,30.60
2022-09-07T13:25:51.383Z,30.40
2022-09-07T13:27:06.488Z,30.10
2022-09-07T13:28:18.497Z,28.90
2022-09-07T13:29:38.636Z,27.50
2022-09-07T13:31:08.334Z,26.60
2022-09-07T13:32:19.172Z,26.00
2022-09-07T13:33:24.017Z,25.00
2022-09-07T13:34:34.730Z,24.00
2022-09-07T13:35:36.954Z,23.30
2022-09-07T13:36:51.489Z,22.80
2022-09-07T13:37:59.827Z,22.90
2022-09-07T13:39:04.861Z,23.00
2022-09-07T13:40:11.694Z,23.10
2022-09-07T13:41:17.687Z,23.10
2022-09-07T13:42:20.875Z,23.20
2022-09-07T13:43:24.441Z,23.30
2022-09-07T13:44:31.800Z,23.40
2022-09-07T13:45:55.516Z,23.70
2022-09-07T13:47:19.027Z,24.20
2022-09-07T13:48:30.979Z,24.60
2022-09-07T13:49:57.032Z,24.90
2022-09-07T13:51:26.179Z,25.10
2022-09-07T13:52:35.370Z,25.30
2022-09-07T13:53:59.917Z,25.60
2022-09-07T13:55:09.808Z,25.90
2022-09-07T13:56:14.218Z,26.00
2022-09-07T13:57:28.221Z,26.00
2022-09-07T13:58:34.754Z,25.90
2022-09-07T13:59:36.636Z,26.10
2022-09-07T14:00:58.176Z,26.10
2022-09-07T14:02:00.551Z,26.30
2022-09-07T14:03:07.224Z,26.70
2022-09-07T14:04:22.589Z,27.00
2022-09-07T14:05:24.353Z,27.20
2022-09-07T14:06:32.139Z,27.50
2022-09-07T14:07:33.754Z,27.60
2022-09-07T14:08:39.655Z,27.80
2022-09-07T14:09:41.874Z,28.10
2022-09-07T14:10:48.852Z,28.20
2022-09-07T14:11:54.347Z,28.30
2022-09-07T14:13:02.054Z,28.20
2022-09-07T14:14:14.441Z,27.90
2022-09-07T14:15:27.880Z,27.80
2022-09-07T14:16:30.625Z,27.80
2022-09-07T14:17:32.365Z,27.80
2022-09-07T14:18:34.094Z,27.80
2022-09-07T14:19:51.468Z,27.70
2022-09-07T14:20:53.852Z,27.70
2022-09-07T14:22:01.243Z,27.60
2022-09-07T14:23:02.893Z,27.60
2022-09-07T14:24:34.833Z,27.60
2022-09-07T14:26:16.044Z,27.70
2022-09-07T14:26:59.197Z,27.50
2022-09-07T14:28:02.409Z,27.70
2022-09-07T14:29:04.069Z,27.80
2022-09-07T14:30:23.628Z,28.10
2022-09-07T14:31:25.904Z,28.30
2022-09-07T14:32:27.790Z,28.50
2022-09-07T14:33:31.071Z,28.70
2022-09-07T14:34:37.476Z,28.80
2022-09-07T14:35:41.341Z,28.80
2022-09-07T14:36:46.251Z,28.80
2022-09-07T14:37:49.560Z,28.70
2022-09-07T14:39:06.998Z,28.40
2022-09-07T14:40:21.879Z,28.20
2022-09-07T14:41:28.277Z,28.10
2022-09-07T14:42:30.186Z,27.90
2022-09-07T14:43:36.145Z,27.80
2022-09-07T14:44:40.459Z,27.60
2022-09-07T14:45:42.156Z,27.40
2022-09-07T14:46:51.761Z,27.20
2022-09-07T14:47:56.797Z,27.10
2022-09-07T14:49:04.922Z,27.00
2022-09-07T14:50:16.706Z,26.90
2022-09-07T14:51:34.842Z,26.80
2022-09-07T14:53:33.213Z,26.60
2022-09-07T14:54:05.613Z,26.50
2022-09-07T14:55:26.393Z,26.30
2022-09-07T14:56:36.362Z,26.10
2022-09-07T14:57:38.025Z,26.10
2022-09-07T14:58:39.732Z,26.10
2022-09-07T14:59:44.011Z,26.00
2022-09-07T15:01:37.251Z,26.00
2022-09-07T15:02:19.218Z,26.00
2022-09-07T15:03:33.962Z,25.90
2022-09-07T15:04:36.311Z,25.80
2022-09-07T15:05:48.178Z,25.80
2022-09-07T15:07:05.063Z,25.80
2022-09-07T15:08:18.411Z,25.80
2022-09-07T15:09:30.152Z,25.70
2022-09-07T15:11:32.509Z,25.60
2022-09-07T15:12:18.080Z,25.50
2022-09-07T15:13:34.094Z,25.50
2022-09-07T15:14:36.304Z,25.50
2022-09-07T15:15:41.289Z,25.40
2022-09-07T15:16:44.474Z,25.20
2022-09-07T15:17:46.513Z,25.10
2022-09-07T15:19:16.196Z,25.10
2022-09-07T15:20:31.057Z,25.00
2022-09-07T15:21:36.588Z,24.90
2022-09-07T15:22:38.314Z,24.80
2022-09-07T15:23:39.995Z,24.70
2022-09-07T15:24:41.689Z,24.60
2022-09-07T15:25:50.286Z,24.40
2022-09-07T15:27:08.521Z,24.30
2022-09-07T15:29:50.555Z,24.30
2022-09-07T15:31:40.540Z,24.30
2022-09-07T15:32:16.687Z,24.30
2022-09-07T15:33:19.544Z,24.30
2022-09-07T15:34:21.220Z,24.40
2022-09-07T15:35:23.002Z,24.40
2022-09-07T15:36:24.669Z,24.30
2022-09-07T15:39:03.828Z,24.20
2022-09-07T15:40:22.775Z,24.30
2022-09-07T15:41:24.757Z,24.30
2022-09-07T15:43:48.506Z,24.30
2022-09-07T15:44:50.495Z,24.30
2022-09-07T15:45:52.478Z,24.30
2022-09-07T15:48:19.612Z,24.40
2022-09-07T15:49:21.720Z,24.50
2022-09-07T15:50:23.707Z,24.50
2022-09-07T15:52:47.115Z,24.60
2022-09-07T15:55:11.661Z,24.60